createdAt,value
2022-11-26T00:01:28.345Z,102383.22
2022-11-26T00:03:57.913Z,102388.44
2022-11-26T00:06:40.303Z,102387.56
2022-11-26T00:09:15.595Z,102401.50
2022-11-26T00:11:44.092Z,102402.31
2022-11-26T00:14:17.274Z,102407.53
2022-11-26T00:16:45.630Z,102405.81
2022-11-26T00:19:14.202Z,102405.91
2022-11-26T00:21:42.887Z,102412.03
2022-11-26T00:24:30.543Z,102407.78
2022-11-26T00:27:00.257Z,102400.84
2022-11-26T00:29:28.645Z,102401.75
2022-11-26T00:31:57.046Z,102409.59
2022-11-26T00:34:25.356Z,102409.69
2022-11-26T00:36:53.985Z,102415.88
2022-11-26T00:39:24.484Z,102418.47
2022-11-26T00:41:53.428Z,102424.59
2022-11-26T00:44:24.480Z,102422.78
2022-11-26T00:46:53.040Z,102430.56
2022-11-26T00:49:21.372Z,102433.16
2022-11-26T00:51:49.788Z,102449.63
2022-11-26T00:54:19.380Z,102437.38
2022-11-26T00:56:49.060Z,102440.06
2022-11-26T00:59:22.641Z,102453.09
2022-11-26T01:01:51.245Z,102447.00
2022-11-26T01:04:21.125Z,102454.84
2022-11-26T01:06:49.694Z,102446.13
2022-11-26T01:09:21.020Z,102458.25
2022-11-26T01:11:53.717Z,102453.94
2022-11-26T01:14:23.513Z,102457.34
2022-11-26T01:16:55.122Z,102459.16
2022-11-26T01:19:23.972Z,102456.47
2022-11-26T01:21:53.611Z,102454.75
2022-11-26T01:24:21.859Z,102466.91
2022-11-26T01:26:50.145Z,102466.91
2022-11-26T01:29:19.862Z,102462.47
2022-11-26T01:31:49.607Z,102468.53
2022-11-26T01:34:17.945Z,102466.72
2022-11-26T01:36:46.219Z,102467.53
2022-11-26T01:39:18.384Z,102464.75
2022-11-26T01:42:10.791Z,102474.28
2022-11-26T01:44:39.474Z,102465.59
2022-11-26T01:47:21.525Z,102470.63
2022-11-26T01:50:27.586Z,102481.84
2022-11-26T01:53:04.233Z,102483.47
2022-11-26T01:55:38.641Z,102485.19
2022-11-26T01:58:10.723Z,102479.00
2022-11-26T02:00:40.037Z,102480.63
2022-11-26T02:03:10.134Z,102485.84
2022-11-26T02:05:46.343Z,102487.47
2022-11-26T02:08:15.709Z,102475.94
2022-11-26T02:10:44.665Z,102485.50
2022-11-26T02:13:13.689Z,102484.41
2022-11-26T02:16:11.163Z,102487.03
2022-11-26T02:18:47.635Z,102495.56
2022-11-26T02:21:25.673Z,102494.66
2022-11-26T02:24:20.310Z,102498.91
2022-11-26T02:27:09.491Z,102498.91
2022-11-26T02:29:43.939Z,102501.50
2022-11-26T02:32:20.804Z,102505.81
2022-11-26T02:34:58.510Z,102501.50
2022-11-26T02:37:51.948Z,102511.03
2022-11-26T02:40:20.718Z,102501.31
2022-11-26T02:42:49.112Z,102515.09
2022-11-26T02:45:25.054Z,102507.06
2022-11-26T02:47:55.593Z,102506.00
2022-11-26T02:50:35.743Z,102512.78
2022-11-26T02:53:05.539Z,102505.66
2022-11-26T02:55:37.832Z,102515.91
2022-11-26T02:58:07.222Z,102513.91
2022-11-26T03:00:39.441Z,102514.44
2022-11-26T03:03:24.163Z,102513.47
2022-11-26T03:05:55.421Z,102511.59
2022-11-26T03:08:25.782Z,102508.00
2022-11-26T03:10:54.164Z,102507.69
2022-11-26T03:13:22.571Z,102511.03
2022-11-26T03:15:50.851Z,102511.94
2022-11-26T03:18:20.042Z,102514.53
2022-11-26T03:20:52.353Z,102521.47
2022-11-26T03:23:21.174Z,102527.56
2022-11-26T03:25:49.766Z,102516.97
2022-11-26T03:28:28.718Z,102528.19
2022-11-26T03:31:00.668Z,102532.41
2022-11-26T03:33:29.249Z,102530.63
2022-11-26T03:35:57.589Z,102535.75
2022-11-26T03:38:25.912Z,102539.13
2022-11-26T03:41:03.291Z,102553.00
2022-11-26T03:43:31.600Z,102547.78
2022-11-26T03:46:01.036Z,102551.28
2022-11-26T03:48:29.431Z,102557.38
2022-11-26T03:50:57.805Z,102568.78
2022-11-26T03:53:26.168Z,102567.09
2022-11-26T03:55:54.583Z,102563.56
2022-11-26T03:58:23.012Z,102574.00
2022-11-26T04:00:51.322Z,102566.91
2022-11-26T04:03:19.967Z,102569.22
2022-11-26T04:05:48.706Z,102572.44
2022-11-26T04:08:17.388Z,102570.56
2022-11-26T04:10:45.687Z,102574.69
2022-11-26T04:13:14.244Z,102571.09
2022-11-26T04:15:42.599Z,102574.47
2022-11-26T04:18:10.914Z,102566.50
2022-11-26T04:20:39.385Z,102574.13
2022-11-26T04:23:07.968Z,102581.75
2022-11-26T04:25:36.269Z,102580.72
2022-11-26T04:28:04.837Z,102581.56
2022-11-26T04:30:33.251Z,102584.25
2022-11-26T04:33:01.626Z,102583.53
2022-11-26T04:35:29.986Z,102583.75
2022-11-26T04:37:58.305Z,102582.13
2022-11-26T04:40:26.767Z,102588.31
2022-11-26T04:42:55.066Z,102594.53
2022-11-26T04:45:23.448Z,102596.50
2022-11-26T04:47:51.780Z,102600.94
2022-11-26T04:50:20.561Z,102598.41
2022-11-26T04:52:49.506Z,102607.31
2022-11-26T04:55:18.648Z,102602.09
2022-11-26T04:57:49.811Z,102597.81
2022-11-26T05:00:19.013Z,102597.59
2022-11-26T05:02:47.755Z,102606.94
2022-11-26T05:05:16.340Z,102615.38
2022-11-26T05:07:44.798Z,102609.06
2022-11-26T05:10:13.313Z,102615.00
2022-11-26T05:12:41.828Z,102621.81
2022-11-26T05:15:10.812Z,102625.94
2022-11-26T05:17:39.072Z,102621.34
2022-11-26T05:20:08.205Z,102618.53
2022-11-26T05:22:36.661Z,102628.03
2022-11-26T05:25:05.691Z,102627.84
2022-11-26T05:27:33.953Z,102621.75
2022-11-26T05:30:07.733Z,102627.84
2022-11-26T05:32:37.614Z,102634.75
2022-11-26T05:35:06.331Z,102645.06
2022-11-26T05:37:34.981Z,102645.78
2022-11-26T05:40:04.760Z,102650.88
2022-11-26T05:42:33.127Z,102642.09
2022-11-26T05:45:02.099Z,102639.38
2022-11-26T05:47:30.399Z,102645.47
2022-11-26T05:49:58.728Z,102650.78
2022-11-26T05:52:27.238Z,102656.00
2022-11-26T05:54:56.013Z,102652.50
2022-11-26T05:57:24.551Z,102648.09
2022-11-26T05:59:52.932Z,102644.47
2022-11-26T06:02:21.343Z,102652.28
2022-11-26T06:04:49.955Z,102648.91
2022-11-26T06:07:18.762Z,102641.97
2022-11-26T06:09:47.150Z,102645.47
2022-11-26T06:12:15.559Z,102653.28
2022-11-26T06:14:43.988Z,102662.97
2022-11-26T06:17:12.673Z,102657.09
2022-11-26T06:19:42.407Z,102657.28
2022-11-26T06:22:10.881Z,102655.69
2022-11-26T06:24:39.632Z,102662.91
2022-11-26T06:27:08.591Z,102666.50
2022-11-26T06:29:36.921Z,102660.47
2022-11-26T06:32:06.545Z,102670.19
2022-11-26T06:34:36.281Z,102668.47
2022-11-26T06:37:05.095Z,102675.50
2022-11-26T06:39:33.417Z,102679.91
2022-11-26T06:42:01.744Z,102685.22
2022-11-26T06:44:31.100Z,102677.50
2022-11-26T06:46:59.520Z,102674.88
2022-11-26T06:49:27.821Z,102684.50
2022-11-26T06:51:56.210Z,102694.00
2022-11-26T06:54:24.444Z,102690.63
2022-11-26T06:56:52.764Z,102691.50
2022-11-26T06:59:21.226Z,102695.81
2022-11-26T07:01:49.709Z,102696.81
2022-11-26T07:04:18.585Z,102698.59
2022-11-26T07:06:46.936Z,102697.81
2022-11-26T07:09:15.980Z,102700.44
2022-11-26T07:11:44.401Z,102697.88
2022-11-26T07:14:12.728Z,102697.09
2022-11-26T07:16:41.312Z,102703.19
2022-11-26T07:19:13.337Z,102699.72
2022-11-26T07:21:42.201Z,102711.84
2022-11-26T07:24:10.657Z,102704.91
2022-11-26T07:26:38.986Z,102710.91
2022-11-26T07:29:07.330Z,102710.84
2022-11-26T07:31:36.360Z,102710.91
2022-11-26T07:34:04.841Z,102709.22
2022-11-26T07:36:33.275Z,102718.03
2022-11-26T07:39:03.199Z,102720.75
2022-11-26T07:41:31.787Z,102720.81
2022-11-26T07:44:00.036Z,102727.06
2022-11-26T07:46:28.469Z,102729.66
2022-11-26T07:48:56.935Z,102727.13
2022-11-26T07:51:31.019Z,102731.66
2022-11-26T07:54:03.769Z,102746.47
2022-11-26T07:56:32.133Z,102737.97
2022-11-26T07:59:01.479Z,102744.19
2022-11-26T08:01:30.918Z,102736.34
2022-11-26T08:04:00.817Z,102738.13
2022-11-26T08:06:30.131Z,102739.84
2022-11-26T08:09:00.551Z,102742.47
2022-11-26T08:11:30.920Z,102751.38
2022-11-26T08:14:02.707Z,102749.75
2022-11-26T08:16:31.591Z,102753.47
2022-11-26T08:19:06.457Z,102751.13
2022-11-26T08:21:35.289Z,102755.72
2022-11-26T08:24:04.925Z,102757.66
2022-11-26T08:26:38.436Z,102745.63
2022-11-26T08:29:11.314Z,102744.09
2022-11-26T08:31:45.610Z,102749.50
2022-11-26T08:34:16.685Z,102751.50
2022-11-26T08:36:46.100Z,102752.59
2022-11-26T08:39:18.925Z,102763.31
2022-11-26T08:41:51.951Z,102761.91
2022-11-26T08:44:21.464Z,102761.28
2022-11-26T08:46:50.349Z,102755.44
2022-11-26T08:49:18.907Z,102758.31
2022-11-26T08:51:47.301Z,102762.09
2022-11-26T08:54:15.713Z,102759.81
2022-11-26T08:56:44.051Z,102758.19
2022-11-26T08:59:13.368Z,102762.66
2022-11-26T09:01:41.884Z,102763.66
2022-11-26T09:04:10.361Z,102766.47
2022-11-26T09:06:39.104Z,102756.19
2022-11-26T09:09:16.986Z,102765.13
2022-11-26T09:11:45.641Z,102763.69
2022-11-26T09:14:15.534Z,102762.28
2022-11-26T09:16:44.498Z,102766.97
2022-11-26T09:19:14.339Z,102767.31
2022-11-26T09:21:43.051Z,102768.66
2022-11-26T09:24:11.903Z,102763.88
2022-11-26T09:26:40.973Z,102773.09
2022-11-26T09:29:13.149Z,102766.50
2022-11-26T09:32:00.808Z,102773.97
2022-11-26T09:34:30.422Z,102774.41
2022-11-26T09:36:59.810Z,102789.75
2022-11-26T09:39:28.693Z,102787.47
2022-11-26T09:42:06.267Z,102785.19
2022-11-26T09:44:37.664Z,102790.84
2022-11-26T09:47:31.798Z,102789.50
2022-11-26T09:50:06.266Z,102786.44
2022-11-26T09:52:47.009Z,102799.84
2022-11-26T09:55:22.540Z,102800.06
2022-11-26T09:58:02.944Z,102789.97
2022-11-26T10:00:39.352Z,102799.06
2022-11-26T10:03:13.090Z,102798.59
2022-11-26T10:06:06.815Z,102790.31
2022-11-26T10:09:08.641Z,102801.19
2022-11-26T10:12:24.444Z,102803.25
2022-11-26T10:15:12.421Z,102796.47
2022-11-26T10:18:31.362Z,102806.38
2022-11-26T10:21:32.407Z,102802.22
2022-11-26T10:24:14.213Z,102795.44
2022-11-26T10:26:50.874Z,102804.34
2022-11-26T10:29:33.737Z,102807.03
2022-11-26T10:32:21.170Z,102803.72
2022-11-26T10:34:56.890Z,102802.06
2022-11-26T10:37:27.808Z,102811.88
2022-11-26T10:40:01.963Z,102804.28
2022-11-26T10:42:42.396Z,102803.72
2022-11-26T10:45:29.014Z,102797.03
2022-11-26T10:48:16.839Z,102799.94
2022-11-26T10:50:55.582Z,102792.25
2022-11-26T10:53:26.023Z,102781.03
2022-11-26T10:55:59.423Z,102794.31
2022-11-26T10:58:31.911Z,102789.19
2022-11-26T11:01:03.756Z,102791.06
2022-11-26T11:06:44.027Z,102788.88
2022-11-26T11:09:25.306Z,102794.34
2022-11-26T11:12:12.551Z,102787.53
2022-11-26T11:14:43.392Z,102793.81
2022-11-26T11:17:30.882Z,102787.03
2022-11-26T11:20:14.313Z,102799.28
2022-11-26T11:22:47.250Z,102791.59
2022-11-26T11:25:25.295Z,102793.47
2022-11-26T11:27:59.956Z,102783.06
2022-11-26T11:30:32.195Z,102777.97
2022-11-26T11:33:30.351Z,102776.41
2022-11-26T11:35:58.622Z,102780.06
2022-11-26T11:38:29.987Z,102774.97
2022-11-26T11:41:02.675Z,102772.53
2022-11-26T11:43:36.913Z,102772.66
2022-11-26T11:46:19.417Z,102774.53
2022-11-26T11:48:47.892Z,102771.09
2022-11-26T11:51:45.856Z,102765.13
2022-11-26T11:54:22.934Z,102759.13
2022-11-26T11:57:25.230Z,102763.59
2022-11-26T12:00:32.725Z,102768.09
2022-11-26T12:03:39.096Z,102777.81
2022-11-26T12:06:22.509Z,102770.94
2022-11-26T12:09:03.211Z,102782.41
2022-11-26T12:11:58.367Z,102768.56
2022-11-26T12:14:32.785Z,102768.56
2022-11-26T12:17:33.499Z,102773.84
2022-11-26T12:20:14.285Z,102773.91
2022-11-26T12:22:48.303Z,102780.13
2022-11-26T12:25:23.634Z,102778.44
2022-11-26T12:28:19.899Z,102770.69
2022-11-26T12:31:10.783Z,102764.78
2022-11-26T12:33:43.676Z,102767.53
2022-11-26T12:36:22.418Z,102765.22
2022-11-26T12:38:56.066Z,102761.91
2022-11-26T12:41:31.978Z,102760.19
2022-11-26T12:44:03.361Z,102764.59
2022-11-26T12:46:47.361Z,102763.78
2022-11-26T12:49:30.630Z,102763.88
2022-11-26T12:52:02.243Z,102769.16
2022-11-26T12:54:55.847Z,102769.22
2022-11-26T12:57:29.708Z,102763.09
2022-11-26T13:00:26.110Z,102767.44
2022-11-26T13:02:56.008Z,102763.16
2022-11-26T13:05:37.684Z,102758.81
2022-11-26T13:08:13.427Z,102767.56
2022-11-26T13:11:00.248Z,102764.94
2022-11-26T13:13:58.706Z,102762.31
2022-11-26T13:16:35.048Z,102758.81
2022-11-26T13:19:34.447Z,102758.00
2022-11-26T13:22:34.064Z,102752.75
2022-11-26T13:25:21.048Z,102751.84
2022-11-26T13:27:54.477Z,102744.72
2022-11-26T13:30:34.376Z,102745.53
2022-11-26T13:33:29.167Z,102734.09
2022-11-26T13:36:10.742Z,102734.78
2022-11-26T13:38:52.285Z,102737.31
2022-11-26T13:41:39.481Z,102739.81
2022-11-26T13:44:28.234Z,102739.75
2022-11-26T13:47:16.744Z,102733.53
2022-11-26T13:49:45.013Z,102729.09
2022-11-26T13:52:26.137Z,102725.50
2022-11-26T13:55:05.030Z,102726.34
2022-11-26T13:57:41.868Z,102718.41
2022-11-26T14:00:11.490Z,102723.56
2022-11-26T14:02:45.219Z,102716.53
2022-11-26T14:05:15.625Z,102712.94
2022-11-26T14:07:45.563Z,102712.94
2022-11-26T14:10:38.832Z,102723.38
2022-11-26T14:13:09.496Z,102720.69
2022-11-26T14:15:40.848Z,102717.09
2022-11-26T14:18:11.750Z,102723.13
2022-11-26T14:20:57.760Z,102726.59
2022-11-26T14:23:41.476Z,102715.06
2022-11-26T14:26:30.133Z,102722.00
2022-11-26T14:29:07.420Z,102713.25
2022-11-26T14:31:39.101Z,102721.97
2022-11-26T14:34:42.409Z,102725.41
2022-11-26T14:37:17.092Z,102725.31
2022-11-26T14:39:45.802Z,102724.44
2022-11-26T14:42:18.277Z,102726.16
2022-11-26T14:44:46.827Z,102730.47
2022-11-26T14:47:22.036Z,102724.34
2022-11-26T14:49:55.795Z,102733.06
2022-11-26T14:52:28.645Z,102732.13
2022-11-26T14:55:00.214Z,102739.94
2022-11-26T14:57:34.641Z,102735.53
2022-11-26T15:00:08.851Z,102740.75
2022-11-26T15:02:42.810Z,102746.97
2022-11-26T15:05:32.014Z,102757.38
2022-11-26T15:08:03.288Z,102750.34
2022-11-26T15:10:38.314Z,102747.66
2022-11-26T15:13:13.838Z,102751.09
2022-11-26T15:16:04.085Z,102751.94
2022-11-26T15:18:35.421Z,102751.03
2022-11-26T15:21:06.118Z,102755.28
2022-11-26T15:23:39.452Z,102754.38
2022-11-26T15:26:16.404Z,102752.59
2022-11-26T15:28:45.087Z,102749.91
2022-11-26T15:31:13.405Z,102754.25
2022-11-26T15:33:43.737Z,102749.81
2022-11-26T15:36:17.427Z,102745.41
2022-11-26T15:39:07.336Z,102741.00
2022-11-26T15:41:42.724Z,102746.16
2022-11-26T15:44:23.493Z,102743.63
2022-11-26T15:46:54.440Z,102741.06
2022-11-26T15:49:32.894Z,102730.50
2022-11-26T15:52:06.268Z,102726.91
2022-11-26T15:55:04.617Z,102738.22
2022-11-26T15:57:31.345Z,102743.44
2022-11-26T16:00:05.405Z,102739.88
2022-11-26T16:02:34.357Z,102734.53
2022-11-26T16:05:03.957Z,102732.75
2022-11-26T16:07:33.757Z,102728.28
2022-11-26T16:10:19.240Z,102728.19
2022-11-26T16:13:24.997Z,102733.34
2022-11-26T16:16:04.771Z,102734.16
2022-11-26T16:18:47.404Z,102739.41
2022-11-26T16:21:22.359Z,102730.66
2022-11-26T16:23:58.003Z,102741.06
2022-11-26T16:26:27.313Z,102747.13
2022-11-26T16:28:55.723Z,102744.53
2022-11-26T16:31:24.334Z,102747.94
2022-11-26T16:33:55.717Z,102745.31
2022-11-26T16:36:26.490Z,102750.56
2022-11-26T16:38:54.731Z,102745.25
2022-11-26T16:41:23.124Z,102747.84
2022-11-26T16:43:51.644Z,102747.81
2022-11-26T16:46:24.225Z,102745.19
2022-11-26T16:48:52.630Z,102744.28
2022-11-26T16:51:22.910Z,102742.50
2022-11-26T16:53:51.393Z,102744.19
2022-11-26T16:56:24.657Z,102738.13
2022-11-26T16:58:53.739Z,102735.44
2022-11-26T17:01:22.041Z,102732.75
2022-11-26T17:03:50.405Z,102737.09
2022-11-26T17:06:31.357Z,102730.97
2022-11-26T17:09:00.759Z,102730.88
2022-11-26T17:11:29.512Z,102730.78
2022-11-26T17:13:58.129Z,102727.19
2022-11-26T17:16:26.722Z,102731.47
2022-11-26T17:18:56.221Z,102735.72
2022-11-26T17:21:24.688Z,102732.94
2022-11-26T17:23:53.007Z,102726.75
2022-11-26T17:26:23.146Z,102730.13
2022-11-26T17:28:51.543Z,102737.00
2022-11-26T17:31:19.977Z,102730.69
2022-11-26T17:33:48.426Z,102735.78
2022-11-26T17:36:19.301Z,102726.84
2022-11-26T17:38:48.159Z,102730.22
2022-11-26T17:41:17.420Z,102738.91
2022-11-26T17:43:45.944Z,102738.75
2022-11-26T17:46:24.131Z,102730.81
2022-11-26T17:48:58.281Z,102735.88
2022-11-26T17:51:28.079Z,102727.97
2022-11-26T17:53:56.574Z,102727.81
2022-11-26T17:56:26.850Z,102731.19
2022-11-26T17:58:55.352Z,102737.13
2022-11-26T18:01:23.662Z,102721.28
2022-11-26T18:03:52.924Z,102717.66
2022-11-26T18:06:48.832Z,102720.22
2022-11-26T18:09:17.179Z,102717.53
2022-11-26T18:11:54.436Z,102727.03
2022-11-26T18:14:23.771Z,102720.81
2022-11-26T18:16:52.879Z,102713.72
2022-11-26T18:19:23.300Z,102718.81
2022-11-26T18:21:52.123Z,102712.66
2022-11-26T18:24:21.166Z,102717.81
2022-11-26T18:26:49.429Z,102715.16
2022-11-26T18:29:17.823Z,102719.31
2022-11-26T18:31:46.112Z,102713.09
2022-11-26T18:34:14.874Z,102699.06
2022-11-26T18:36:47.118Z,102701.56
2022-11-26T18:39:17.682Z,102701.41
2022-11-26T18:41:45.997Z,102701.31
2022-11-26T18:44:14.271Z,102693.34
2022-11-26T18:46:42.664Z,102701.22
2022-11-26T18:49:11.420Z,102701.97
2022-11-26T18:51:39.744Z,102691.53
2022-11-26T18:54:09.670Z,102692.41
2022-11-26T18:56:38.175Z,102691.53
2022-11-26T18:59:06.511Z,102687.94
2022-11-26T19:01:35.314Z,102692.97
2022-11-26T19:04:04.497Z,102683.44
2022-11-26T19:06:34.036Z,102681.63
2022-11-26T19:09:16.183Z,102680.75
2022-11-26T19:11:45.543Z,102684.34
2022-11-26T19:14:15.352Z,102679.09
2022-11-26T19:16:43.931Z,102684.34
2022-11-26T19:19:12.734Z,102684.34
2022-11-26T19:21:41.914Z,102678.34
2022-11-26T19:24:11.796Z,102677.47
2022-11-26T19:26:43.070Z,102676.56
2022-11-26T19:29:12.961Z,102674.84
2022-11-26T19:31:44.764Z,102664.31
2022-11-26T19:34:15.074Z,102666.03
2022-11-26T19:36:48.669Z,102666.03
2022-11-26T19:39:17.529Z,102660.72
2022-11-26T19:41:46.059Z,102654.72
2022-11-26T19:44:14.396Z,102652.94
2022-11-26T19:46:42.845Z,102661.78
2022-11-26T19:49:12.424Z,102652.09
2022-11-26T19:51:40.856Z,102647.81
2022-11-26T19:54:10.371Z,102649.44
2022-11-26T19:56:38.749Z,102649.34
2022-11-26T19:59:07.143Z,102652.78
2022-11-26T20:01:36.215Z,102647.53
2022-11-26T20:04:07.003Z,102658.00
2022-11-26T20:06:36.221Z,102655.38
2022-11-26T20:09:09.394Z,102654.59
2022-11-26T20:11:39.638Z,102663.22
2022-11-26T20:14:11.348Z,102670.28
2022-11-26T20:16:42.580Z,102670.19
2022-11-26T20:19:12.492Z,102682.47
2022-11-26T20:21:40.826Z,102690.22
2022-11-26T20:24:14.911Z,102696.25
2022-11-26T20:26:45.422Z,102705.84
2022-11-26T20:29:17.015Z,102711.06
2022-11-26T20:31:49.564Z,102705.84
2022-11-26T20:34:20.943Z,102708.53
2022-11-26T20:36:49.600Z,102698.06
2022-11-26T20:39:21.017Z,102703.41
2022-11-26T20:41:49.947Z,102706.97
2022-11-26T20:44:18.570Z,102719.22
2022-11-26T20:46:46.848Z,102715.91
2022-11-26T20:49:16.165Z,102719.50
2022-11-26T20:51:44.629Z,102719.63
2022-11-26T20:54:13.139Z,102719.81
2022-11-26T20:56:41.585Z,102721.66
2022-11-26T20:59:10.054Z,102715.72
2022-11-26T21:01:39.115Z,102710.63
2022-11-26T21:04:08.701Z,102714.31
2022-11-26T21:06:37.042Z,102733.50
2022-11-26T21:09:06.504Z,102739.75
2022-11-26T21:11:35.533Z,102739.75
2022-11-26T21:14:04.419Z,102738.91
2022-11-26T21:16:35.496Z,102737.19
2022-11-26T21:19:03.855Z,102728.53
2022-11-26T21:21:32.177Z,102718.06
2022-11-26T21:24:07.548Z,102714.66
2022-11-26T21:26:35.926Z,102696.41
2022-11-26T21:29:04.348Z,102695.63
2022-11-26T21:31:32.935Z,102693.00
2022-11-26T21:34:05.003Z,102680.81
2022-11-26T21:36:36.127Z,102680.00
2022-11-26T21:39:04.476Z,102670.50
2022-11-26T21:41:33.863Z,102663.38
2022-11-26T21:44:03.978Z,102668.69
2022-11-26T21:46:38.306Z,102667.81
2022-11-26T21:49:08.262Z,102653.84
2022-11-26T21:51:36.871Z,102639.03
2022-11-26T21:54:05.560Z,102649.47
2022-11-26T21:56:34.033Z,102645.97
2022-11-26T21:59:02.939Z,102626.75
2022-11-26T22:01:36.692Z,102619.84
2022-11-26T22:04:14.567Z,102611.03
2022-11-26T22:06:45.155Z,102607.63
2022-11-26T22:09:15.381Z,102609.34
2022-11-26T22:11:45.259Z,102611.03
2022-11-26T22:14:16.090Z,102605.81
2022-11-26T22:16:44.373Z,102610.16
2022-11-26T22:19:12.491Z,102599.59
2022-11-26T22:21:42.352Z,102589.97
2022-11-26T22:24:16.040Z,102587.22
2022-11-26T22:26:45.010Z,102593.34
2022-11-26T22:29:18.554Z,102584.63
2022-11-26T22:31:48.386Z,102588.88
2022-11-26T22:34:19.530Z,102579.22
2022-11-26T22:36:47.946Z,102583.47
2022-11-26T22:39:18.208Z,102578.16
2022-11-26T22:41:49.589Z,102574.56
2022-11-26T22:44:18.457Z,102575.41
2022-11-26T22:46:47.068Z,102573.47
2022-11-26T22:49:18.878Z,102570.69
2022-11-26T22:51:47.506Z,102565.28
2022-11-26T22:54:16.572Z,102554.75
2022-11-26T22:56:45.192Z,102558.19
2022-11-26T22:59:14.677Z,102544.22
2022-11-26T23:01:42.953Z,102551.09
2022-11-26T23:04:11.761Z,102550.09
2022-11-26T23:06:40.867Z,102548.31
2022-11-26T23:09:10.060Z,102551.69
2022-11-26T23:11:40.957Z,102552.50
2022-11-26T23:14:12.721Z,102544.56
2022-11-26T23:16:43.815Z,102550.56
2022-11-26T23:19:16.399Z,102547.84
2022-11-26T23:21:46.839Z,102538.22
2022-11-26T23:24:16.161Z,102537.22
2022-11-26T23:26:46.135Z,102545.03
2022-11-26T23:29:14.544Z,102539.63
2022-11-26T23:31:44.732Z,102537.81
2022-11-26T23:34:14.474Z,102533.34
2022-11-26T23:36:42.971Z,102527.94
2022-11-26T23:39:13.555Z,102530.50
2022-11-26T23:41:41.889Z,102526.91
2022-11-26T23:44:10.280Z,102527.63
2022-11-26T23:46:38.892Z,102525.75
2022-11-26T23:49:07.304Z,102524.78
2022-11-26T23:51:35.568Z,102523.88
2022-11-26T23:54:04.049Z,102522.91
2022-11-26T23:56:34.114Z,102518.41
2022-11-26T23:59:04.352Z,102520.16
